sensor_id;sensor_type;location;lat;lon;timestamp;P1;durP1;ratioP1;P2;durP2;ratioP2
12476;SDS011;6303;51.504;6.300;2023-08-24T00:00:23;2.10;;;1.90;;
12476;SDS011;6303;51.504;6.300;2023-08-24T00:02:50;2.05;;;1.90;;
12476;SDS011;6303;51.504;6.300;2023-08-24T00:05:17;2.17;;;1.95;;
12476;SDS011;6303;51.504;6.300;2023-08-24T00:07:46;2.13;;;1.92;;
12476;SDS011;6303;51.504;6.300;2023-08-24T00:10:13;2.42;;;1.92;;
12476;SDS011;6303;51.504;6.300;2023-08-24T00:12:40;2.75;;;1.85;;
12476;SDS011;6303;51.504;6.300;2023-08-24T00:15:08;2.17;;;1.83;;
12476;SDS011;6303;51.504;6.300;2023-08-24T00:17:37;2.53;;;1.85;;
12476;SDS011;6303;51.504;6.300;2023-08-24T00:20:04;1.92;;;1.70;;
12476;SDS011;6303;51.504;6.300;2023-08-24T00:22:36;1.83;;;1.73;;
12476;SDS011;6303;51.504;6.300;2023-08-24T00:25:04;2.17;;;1.70;;
12476;SDS011;6303;51.504;6.300;2023-08-24T00:27:32;2.05;;;1.85;;
12476;SDS011;6303;51.504;6.300;2023-08-24T00:29:59;2.58;;;1.80;;
12476;SDS011;6303;51.504;6.300;2023-08-24T00:32:27;3.00;;;1.92;;
12476;SDS011;6303;51.504;6.300;2023-08-24T00:34:56;2.00;;;1.80;;
12476;SDS011;6303;51.504;6.300;2023-08-24T00:37:23;1.85;;;1.75;;
12476;SDS011;6303;51.504;6.300;2023-08-24T00:39:50;1.98;;;1.80;;
12476;SDS011;6303;51.504;6.300;2023-08-24T00:42:17;1.60;;;1.50;;
12476;SDS011;6303;51.504;6.300;2023-08-24T00:44:45;1.60;;;1.50;;
12476;SDS011;6303;51.504;6.300;2023-08-24T00:47:12;2.13;;;1.92;;
12476;SDS011;6303;51.504;6.300;2023-08-24T00:49:39;1.70;;;1.60;;
12476;SDS011;6303;51.504;6.300;2023-08-24T00:52:08;1.88;;;1.73;;
12476;SDS011;6303;51.504;6.300;2023-08-24T00:54:36;2.22;;;1.83;;
12476;SDS011;6303;51.504;6.300;2023-08-24T00:57:05;1.80;;;1.70;;
12476;SDS011;6303;51.504;6.300;2023-08-24T00:59:32;3.50;;;1.77;;
12476;SDS011;6303;51.504;6.300;2023-08-24T01:02:00;2.10;;;1.90;;
12476;SDS011;6303;51.504;6.300;2023-08-24T01:04:29;1.60;;;1.50;;
12476;SDS011;6303;51.504;6.300;2023-08-24T01:06:56;1.77;;;1.67;;
12476;SDS011;6303;51.504;6.300;2023-08-24T01:09:24;2.22;;;1.75;;
12476;SDS011;6303;51.504;6.300;2023-08-24T01:11:54;2.00;;;1.80;;
12476;SDS011;6303;51.504;6.300;2023-08-24T01:14:30;2.03;;;1.90;;
12476;SDS011;6303;51.504;6.300;2023-08-24T01:17:06;2.08;;;1.70;;
12476;SDS011;6303;51.504;6.300;2023-08-24T01:19:38;2.30;;;1.77;;
12476;SDS011;6303;51.504;6.300;2023-08-24T01:22:12;1.70;;;1.60;;
12476;SDS011;6303;51.504;6.300;2023-08-24T01:25:00;2.00;;;1.65;;
12476;SDS011;6303;51.504;6.300;2023-08-24T01:27:34;2.33;;;1.85;;
12476;SDS011;6303;51.504;6.300;2023-08-24T01:30:03;2.28;;;1.95;;
12476;SDS011;6303;51.504;6.300;2023-08-24T01:32:31;1.88;;;1.63;;
12476;SDS011;6303;51.504;6.300;2023-08-24T01:34:58;1.60;;;1.50;;
12476;SDS011;6303;51.504;6.300;2023-08-24T01:37:25;1.75;;;1.60;;
12476;SDS011;6303;51.504;6.300;2023-08-24T01:39:55;1.80;;;1.52;;
12476;SDS011;6303;51.504;6.300;2023-08-24T01:42:31;2.10;;;1.92;;
12476;SDS011;6303;51.504;6.300;2023-08-24T01:45:03;2.92;;;1.92;;
12476;SDS011;6303;51.504;6.300;2023-08-24T01:47:33;1.60;;;1.50;;
12476;SDS011;6303;51.504;6.300;2023-08-24T01:50:03;1.67;;;1.58;;
12476;SDS011;6303;51.504;6.300;2023-08-24T01:52:32;2.25;;;1.75;;
12476;SDS011;6303;51.504;6.300;2023-08-24T01:55:02;1.80;;;1.70;;
12476;SDS011;6303;51.504;6.300;2023-08-24T01:57:29;1.60;;;1.50;;
12476;SDS011;6303;51.504;6.300;2023-08-24T01:59:58;2.03;;;1.73;;
12476;SDS011;6303;51.504;6.300;2023-08-24T02:02:25;2.17;;;1.60;;
12476;SDS011;6303;51.504;6.300;2023-08-24T02:04:52;2.28;;;1.90;;
12476;SDS011;6303;51.504;6.300;2023-08-24T02:07:19;1.70;;;1.60;;
12476;SDS011;6303;51.504;6.300;2023-08-24T02:09:46;2.15;;;1.73;;
12476;SDS011;6303;51.504;6.300;2023-08-24T02:12:13;1.90;;;1.70;;
12476;SDS011;6303;51.504;6.300;2023-08-24T02:14:40;4.25;;;1.73;;
12476;SDS011;6303;51.504;6.300;2023-08-24T02:17:09;1.92;;;1.70;;
12476;SDS011;6303;51.504;6.300;2023-08-24T02:19:36;2.00;;;1.80;;
12476;SDS011;6303;51.504;6.300;2023-08-24T02:22:03;2.00;;;1.60;;
12476;SDS011;6303;51.504;6.300;2023-08-24T02:24:30;1.85;;;1.70;;
12476;SDS011;6303;51.504;6.300;2023-08-24T02:26:57;3.30;;;1.80;;
12476;SDS011;6303;51.504;6.300;2023-08-24T02:29:24;2.17;;;1.70;;
12476;SDS011;6303;51.504;6.300;2023-08-24T02:31:53;1.60;;;1.50;;
12476;SDS011;6303;51.504;6.300;2023-08-24T02:34:21;2.15;;;1.63;;
12476;SDS011;6303;51.504;6.300;2023-08-24T02:36:48;2.45;;;1.60;;
12476;SDS011;6303;51.504;6.300;2023-08-24T02:39:17;2.55;;;1.55;;
12476;SDS011;6303;51.504;6.300;2023-08-24T02:41:44;2.50;;;1.60;;
12476;SDS011;6303;51.504;6.300;2023-08-24T02:44:13;2.70;;;1.60;;
12476;SDS011;6303;51.504;6.300;2023-08-24T02:46:40;1.77;;;1.58;;
12476;SDS011;6303;51.504;6.300;2023-08-24T02:49:10;1.60;;;1.50;;
12476;SDS011;6303;51.504;6.300;2023-08-24T02:51:38;2.58;;;1.80;;
12476;SDS011;6303;51.504;6.300;2023-08-24T02:54:06;1.45;;;1.35;;
12476;SDS011;6303;51.504;6.300;2023-08-24T02:56:33;1.70;;;1.60;;
12476;SDS011;6303;51.504;6.300;2023-08-24T02:59:00;2.53;;;1.80;;
12476;SDS011;6303;51.504;6.300;2023-08-24T03:01:27;1.70;;;1.60;;
12476;SDS011;6303;51.504;6.300;2023-08-24T03:03:54;1.80;;;1.70;;
12476;SDS011;6303;51.504;6.300;2023-08-24T03:06:23;1.70;;;1.58;;
12476;SDS011;6303;51.504;6.300;2023-08-24T03:08:52;2.13;;;1.50;;
12476;SDS011;6303;51.504;6.300;2023-08-24T03:11:19;1.63;;;1.52;;
12476;SDS011;6303;51.504;6.300;2023-08-24T03:13:46;1.67;;;1.52;;
12476;SDS011;6303;51.504;6.300;2023-08-24T03:16:13;1.88;;;1.40;;
12476;SDS011;6303;51.504;6.300;2023-08-24T03:18:40;1.55;;;1.45;;
12476;SDS011;6303;51.504;6.300;2023-08-24T03:21:07;1.67;;;1.58;;
12476;SDS011;6303;51.504;6.300;2023-08-24T03:23:35;1.70;;;1.60;;
12476;SDS011;6303;51.504;6.300;2023-08-24T03:26:03;1.80;;;1.50;;
12476;SDS011;6303;51.504;6.300;2023-08-24T03:28:32;2.00;;;1.67;;
12476;SDS011;6303;51.504;6.300;2023-08-24T03:31:00;1.98;;;1.60;;
12476;SDS011;6303;51.504;6.300;2023-08-24T03:33:27;2.70;;;1.50;;
12476;SDS011;6303;51.504;6.300;2023-08-24T03:35:56;1.75;;;1.52;;
12476;SDS011;6303;51.504;6.300;2023-08-24T03:38:23;2.00;;;1.70;;
12476;SDS011;6303;51.504;6.300;2023-08-24T03:40:51;2.38;;;1.65;;
12476;SDS011;6303;51.504;6.300;2023-08-24T03:43:19;1.65;;;1.55;;
12476;SDS011;6303;51.504;6.300;2023-08-24T03:45:46;2.08;;;1.40;;
12476;SDS011;6303;51.504;6.300;2023-08-24T03:48:13;1.55;;;1.45;;
12476;SDS011;6303;51.504;6.300;2023-08-24T03:50:41;1.60;;;1.50;;
12476;SDS011;6303;51.504;6.300;2023-08-24T03:53:08;1.60;;;1.50;;
12476;SDS011;6303;51.504;6.300;2023-08-24T03:55:35;1.60;;;1.50;;
12476;SDS011;6303;51.504;6.300;2023-08-24T03:58:03;1.80;;;1.70;;
12476;SDS011;6303;51.504;6.300;2023-08-24T04:00:32;1.70;;;1.60;;
12476;SDS011;6303;51.504;6.300;2023-08-24T04:03:00;2.90;;;1.95;;
12476;SDS011;6303;51.504;6.300;2023-08-24T04:05:28;2.20;;;2.00;;
12476;SDS011;6303;51.504;6.300;2023-08-24T04:07:55;4.68;;;2.35;;
12476;SDS011;6303;51.504;6.300;2023-08-24T04:10:24;4.28;;;2.55;;
12476;SDS011;6303;51.504;6.300;2023-08-24T04:12:51;4.05;;;2.42;;
12476;SDS011;6303;51.504;6.300;2023-08-24T04:15:19;3.03;;;2.60;;
12476;SDS011;6303;51.504;6.300;2023-08-24T04:17:48;3.35;;;2.17;;
12476;SDS011;6303;51.504;6.300;2023-08-24T04:20:16;3.65;;;2.10;;
12476;SDS011;6303;51.504;6.300;2023-08-24T04:22:43;2.95;;;2.38;;
12476;SDS011;6303;51.504;6.300;2023-08-24T04:25:10;3.58;;;2.50;;
12476;SDS011;6303;51.504;6.300;2023-08-24T04:27:37;3.80;;;2.30;;
12476;SDS011;6303;51.504;6.300;2023-08-24T04:30:05;5.15;;;2.60;;
12476;SDS011;6303;51.504;6.300;2023-08-24T04:32:36;4.28;;;2.60;;
12476;SDS011;6303;51.504;6.300;2023-08-24T04:35:05;4.07;;;2.80;;
12476;SDS011;6303;51.504;6.300;2023-08-24T04:37:35;4.28;;;2.67;;
12476;SDS011;6303;51.504;6.300;2023-08-24T04:40:03;2.83;;;2.63;;
12476;SDS011;6303;51.504;6.300;2023-08-24T04:42:32;3.78;;;2.88;;
12476;SDS011;6303;51.504;6.300;2023-08-24T04:44:59;3.03;;;2.65;;
12476;SDS011;6303;51.504;6.300;2023-08-24T04:47:26;2.65;;;2.45;;
12476;SDS011;6303;51.504;6.300;2023-08-24T04:49:53;2.90;;;2.65;;
12476;SDS011;6303;51.504;6.300;2023-08-24T04:52:22;3.00;;;2.72;;
12476;SDS011;6303;51.504;6.300;2023-08-24T04:54:49;2.63;;;2.42;;
12476;SDS011;6303;51.504;6.300;2023-08-24T04:57:16;5.00;;;2.50;;
12476;SDS011;6303;51.504;6.300;2023-08-24T04:59:44;3.33;;;2.40;;
12476;SDS011;6303;51.504;6.300;2023-08-24T05:02:11;4.22;;;2.60;;
12476;SDS011;6303;51.504;6.300;2023-08-24T05:04:39;2.78;;;2.55;;
12476;SDS011;6303;51.504;6.300;2023-08-24T05:07:06;3.15;;;2.70;;
12476;SDS011;6303;51.504;6.300;2023-08-24T05:09:34;2.97;;;2.55;;
12476;SDS011;6303;51.504;6.300;2023-08-24T05:12:02;3.35;;;2.70;;
12476;SDS011;6303;51.504;6.300;2023-08-24T05:14:29;4.45;;;2.97;;
12476;SDS011;6303;51.504;6.300;2023-08-24T05:16:59;4.18;;;3.30;;
12476;SDS011;6303;51.504;6.300;2023-08-24T05:19:26;3.80;;;3.13;;
12476;SDS011;6303;51.504;6.300;2023-08-24T05:21:53;3.90;;;3.30;;
12476;SDS011;6303;51.504;6.300;2023-08-24T05:24:20;7.70;;;4.00;;
12476;SDS011;6303;51.504;6.300;2023-08-24T05:26:48;6.00;;;4.50;;
12476;SDS011;6303;51.504;6.300;2023-08-24T05:29:15;7.25;;;4.45;;
12476;SDS011;6303;51.504;6.300;2023-08-24T05:31:42;8.43;;;4.60;;
12476;SDS011;6303;51.504;6.300;2023-08-24T05:34:09;7.55;;;4.18;;
12476;SDS011;6303;51.504;6.300;2023-08-24T05:36:36;7.32;;;4.63;;
12476;SDS011;6303;51.504;6.300;2023-08-24T05:39:04;7.28;;;4.18;;
12476;SDS011;6303;51.504;6.300;2023-08-24T05:41:31;7.43;;;4.60;;
12476;SDS011;6303;51.504;6.300;2023-08-24T05:44:00;6.00;;;3.95;;
12476;SDS011;6303;51.504;6.300;2023-08-24T05:46:27;7.70;;;4.75;;
12476;SDS011;6303;51.504;6.300;2023-08-24T05:48:55;7.75;;;4.43;;
12476;SDS011;6303;51.504;6.300;2023-08-24T05:51:24;6.40;;;4.15;;
12476;SDS011;6303;51.504;6.300;2023-08-24T05:53:51;5.68;;;4.28;;
12476;SDS011;6303;51.504;6.300;2023-08-24T05:56:20;4.63;;;3.90;;
12476;SDS011;6303;51.504;6.300;2023-08-24T05:58:48;7.10;;;4.55;;
12476;SDS011;6303;51.504;6.300;2023-08-24T06:01:16;5.93;;;4.18;;
12476;SDS011;6303;51.504;6.300;2023-08-24T06:03:43;7.38;;;3.97;;
12476;SDS011;6303;51.504;6.300;2023-08-24T06:06:10;7.22;;;4.20;;
12476;SDS011;6303;51.504;6.300;2023-08-24T06:08:37;6.95;;;4.45;;
12476;SDS011;6303;51.504;6.300;2023-08-24T06:11:04;6.25;;;4.30;;
12476;SDS011;6303;51.504;6.300;2023-08-24T06:13:32;7.07;;;4.22;;
12476;SDS011;6303;51.504;6.300;2023-08-24T06:15:59;4.57;;;3.70;;
12476;SDS011;6303;51.504;6.300;2023-08-24T06:18:28;5.25;;;4.53;;
12476;SDS011;6303;51.504;6.300;2023-08-24T06:20:55;7.32;;;4.75;;
12476;SDS011;6303;51.504;6.300;2023-08-24T06:23:22;4.95;;;3.90;;
12476;SDS011;6303;51.504;6.300;2023-08-24T06:25:49;6.43;;;4.30;;
12476;SDS011;6303;51.504;6.300;2023-08-24T06:28:16;5.25;;;4.45;;
12476;SDS011;6303;51.504;6.300;2023-08-24T06:30:43;5.25;;;4.30;;
12476;SDS011;6303;51.504;6.300;2023-08-24T06:33:11;4.85;;;4.35;;
12476;SDS011;6303;51.504;6.300;2023-08-24T06:35:40;6.30;;;4.60;;
12476;SDS011;6303;51.504;6.300;2023-08-24T06:38:07;6.30;;;4.00;;
12476;SDS011;6303;51.504;6.300;2023-08-24T06:40:34;5.00;;;4.20;;
12476;SDS011;6303;51.504;6.300;2023-08-24T06:43:01;5.88;;;4.20;;
12476;SDS011;6303;51.504;6.300;2023-08-24T06:45:29;4.25;;;3.83;;
12476;SDS011;6303;51.504;6.300;2023-08-24T06:47:56;6.38;;;4.70;;
12476;SDS011;6303;51.504;6.300;2023-08-24T06:50:23;4.47;;;4.05;;
12476;SDS011;6303;51.504;6.300;2023-08-24T06:52:52;6.10;;;4.57;;
12476;SDS011;6303;51.504;6.300;2023-08-24T06:55:20;6.13;;;3.90;;
12476;SDS011;6303;51.504;6.300;2023-08-24T06:57:47;4.45;;;4.00;;
12476;SDS011;6303;51.504;6.300;2023-08-24T07:00:16;6.00;;;4.63;;
12476;SDS011;6303;51.504;6.300;2023-08-24T07:02:45;6.32;;;4.53;;
12476;SDS011;6303;51.504;6.300;2023-08-24T07:05:12;6.55;;;5.45;;
12476;SDS011;6303;51.504;6.300;2023-08-24T07:07:40;5.85;;;4.95;;
12476;SDS011;6303;51.504;6.300;2023-08-24T07:10:10;5.75;;;4.78;;
12476;SDS011;6303;51.504;6.300;2023-08-24T07:12:37;6.05;;;4.70;;
12476;SDS011;6303;51.504;6.300;2023-08-24T07:15:06;6.90;;;4.75;;
12476;SDS011;6303;51.504;6.300;2023-08-24T07:17:33;5.32;;;4.60;;
12476;SDS011;6303;51.504;6.300;2023-08-24T07:20:00;4.82;;;4.32;;
12476;SDS011;6303;51.504;6.300;2023-08-24T07:22:30;5.95;;;4.20;;
12476;SDS011;6303;51.504;6.300;2023-08-24T07:24:57;6.35;;;4.72;;
12476;SDS011;6303;51.504;6.300;2023-08-24T07:27:26;6.95;;;5.10;;
12476;SDS011;6303;51.504;6.300;2023-08-24T07:29:53;7.82;;;4.50;;
12476;SDS011;6303;51.504;6.300;2023-08-24T07:32:20;11.18;;;4.70;;
12476;SDS011;6303;51.504;6.300;2023-08-24T07:34:49;6.22;;;4.60;;
12476;SDS011;6303;51.504;6.300;2023-08-24T07:37:16;7.55;;;4.63;;
12476;SDS011;6303;51.504;6.300;2023-08-24T07:39:43;8.07;;;4.97;;
12476;SDS011;6303;51.504;6.300;2023-08-24T07:42:10;6.05;;;4.65;;
12476;SDS011;6303;51.504;6.300;2023-08-24T07:44:38;5.25;;;4.40;;
12476;SDS011;6303;51.504;6.300;2023-08-24T07:47:05;5.75;;;4.50;;
12476;SDS011;6303;51.504;6.300;2023-08-24T07:49:32;5.57;;;4.28;;
12476;SDS011;6303;51.504;6.300;2023-08-24T07:51:59;4.72;;;4.18;;
12476;SDS011;6303;51.504;6.300;2023-08-24T07:54:27;7.97;;;4.40;;
12476;SDS011;6303;51.504;6.300;2023-08-24T07:56:54;5.60;;;4.55;;
12476;SDS011;6303;51.504;6.300;2023-08-24T07:59:21;6.78;;;4.32;;
12476;SDS011;6303;51.504;6.300;2023-08-24T08:01:50;5.05;;;4.55;;
12476;SDS011;6303;51.504;6.300;2023-08-24T08:04:17;7.20;;;4.72;;
12476;SDS011;6303;51.504;6.300;2023-08-24T08:06:44;5.68;;;4.25;;
12476;SDS011;6303;51.504;6.300;2023-08-24T08:09:11;5.55;;;4.60;;
12476;SDS011;6303;51.504;6.300;2023-08-24T08:11:38;5.53;;;4.07;;
12476;SDS011;6303;51.504;6.300;2023-08-24T08:14:05;8.70;;;4.40;;
12476;SDS011;6303;51.504;6.300;2023-08-24T08:16:32;4.95;;;4.43;;
12476;SDS011;6303;51.504;6.300;2023-08-24T08:19:01;5.45;;;4.15;;
12476;SDS011;6303;51.504;6.300;2023-08-24T08:21:28;5.07;;;4.20;;
12476;SDS011;6303;51.504;6.300;2023-08-24T08:23:55;4.68;;;3.95;;
12476;SDS011;6303;51.504;6.300;2023-08-24T08:26:22;4.75;;;4.25;;
12476;SDS011;6303;51.504;6.300;2023-08-24T08:28:50;5.70;;;4.32;;
12476;SDS011;6303;51.504;6.300;2023-08-24T08:31:17;4.57;;;4.00;;
12476;SDS011;6303;51.504;6.300;2023-08-24T08:33:44;4.30;;;3.90;;
12476;SDS011;6303;51.504;6.300;2023-08-24T08:36:12;6.30;;;4.35;;
12476;SDS011;6303;51.504;6.300;2023-08-24T08:38:39;6.00;;;4.25;;
12476;SDS011;6303;51.504;6.300;2023-08-24T08:41:06;5.32;;;4.15;;
12476;SDS011;6303;51.504;6.300;2023-08-24T08:43:33;4.30;;;3.53;;
12476;SDS011;6303;51.504;6.300;2023-08-24T08:46:00;5.13;;;3.70;;
12476;SDS011;6303;51.504;6.300;2023-08-24T08:48:28;4.72;;;3.88;;
12476;SDS011;6303;51.504;6.300;2023-08-24T08:50:57;4.00;;;3.58;;
12476;SDS011;6303;51.504;6.300;2023-08-24T08:53:28;5.00;;;3.90;;
12476;SDS011;6303;51.504;6.300;2023-08-24T08:55:56;4.13;;;3.65;;
12476;SDS011;6303;51.504;6.300;2023-08-24T08:58:28;4.20;;;3.80;;
12476;SDS011;6303;51.504;6.300;2023-08-24T09:00:57;4.63;;;3.63;;
12476;SDS011;6303;51.504;6.300;2023-08-24T09:03:25;5.18;;;3.72;;
12476;SDS011;6303;51.504;6.300;2023-08-24T09:05:54;4.85;;;3.85;;
12476;SDS011;6303;51.504;6.300;2023-08-24T09:08:21;4.55;;;4.13;;
12476;SDS011;6303;51.504;6.300;2023-08-24T09:10:50;4.07;;;3.50;;
12476;SDS011;6303;51.504;6.300;2023-08-24T09:13:17;6.55;;;4.20;;
12476;SDS011;6303;51.504;6.300;2023-08-24T09:15:44;6.50;;;3.70;;
12476;SDS011;6303;51.504;6.300;2023-08-24T09:18:11;4.63;;;3.80;;
12476;SDS011;6303;51.504;6.300;2023-08-24T09:20:38;4.40;;;4.00;;
12476;SDS011;6303;51.504;6.300;2023-08-24T09:23:08;3.70;;;3.40;;
12476;SDS011;6303;51.504;6.300;2023-08-24T09:25:44;4.00;;;3.60;;
12476;SDS011;6303;51.504;6.300;2023-08-24T09:28:14;3.97;;;3.67;;
12476;SDS011;6303;51.504;6.300;2023-08-24T09:30:49;3.88;;;3.47;;
12476;SDS011;6303;51.504;6.300;2023-08-24T09:33:19;6.53;;;3.53;;
12476;SDS011;6303;51.504;6.300;2023-08-24T09:35:52;3.63;;;3.30;;
12476;SDS011;6303;51.504;6.300;2023-08-24T09:38:26;4.70;;;3.50;;
12476;SDS011;6303;51.504;6.300;2023-08-24T09:40:54;5.60;;;3.53;;
12476;SDS011;6303;51.504;6.300;2023-08-24T09:43:23;4.22;;;3.22;;
12476;SDS011;6303;51.504;6.300;2023-08-24T09:45:52;4.20;;;3.40;;
12476;SDS011;6303;51.504;6.300;2023-08-24T09:48:20;4.05;;;3.40;;
12476;SDS011;6303;51.504;6.300;2023-08-24T09:50:49;5.80;;;3.65;;
12476;SDS011;6303;51.504;6.300;2023-08-24T09:53:18;5.30;;;3.28;;
12476;SDS011;6303;51.504;6.300;2023-08-24T09:55:48;5.18;;;3.40;;
12476;SDS011;6303;51.504;6.300;2023-08-24T09:58:19;4.38;;;3.25;;
12476;SDS011;6303;51.504;6.300;2023-08-24T10:00:49;3.15;;;2.90;;
12476;SDS011;6303;51.504;6.300;2023-08-24T10:03:18;3.88;;;3.30;;
12476;SDS011;6303;51.504;6.300;2023-08-24T10:05:50;3.90;;;3.25;;
12476;SDS011;6303;51.504;6.300;2023-08-24T10:08:20;3.42;;;3.10;;
12476;SDS011;6303;51.504;6.300;2023-08-24T10:10:49;4.05;;;3.30;;
12476;SDS011;6303;51.504;6.300;2023-08-24T10:13:23;3.47;;;3.10;;
12476;SDS011;6303;51.504;6.300;2023-08-24T10:15:56;3.42;;;3.05;;
12476;SDS011;6303;51.504;6.300;2023-08-24T10:18:25;3.80;;;3.50;;
12476;SDS011;6303;51.504;6.300;2023-08-24T10:20:53;3.60;;;3.30;;
12476;SDS011;6303;51.504;6.300;2023-08-24T10:23:22;4.55;;;3.25;;
12476;SDS011;6303;51.504;6.300;2023-08-24T10:25:50;3.58;;;3.20;;
12476;SDS011;6303;51.504;6.300;2023-08-24T10:28:18;3.42;;;3.13;;
12476;SDS011;6303;51.504;6.300;2023-08-24T10:30:47;3.47;;;3.17;;
12476;SDS011;6303;51.504;6.300;2023-08-24T10:33:16;3.45;;;3.15;;
12476;SDS011;6303;51.504;6.300;2023-08-24T10:35:43;3.60;;;2.83;;
12476;SDS011;6303;51.504;6.300;2023-08-24T10:38:22;3.40;;;3.10;;
12476;SDS011;6303;51.504;6.300;2023-08-24T10:40:50;3.28;;;2.97;;
12476;SDS011;6303;51.504;6.300;2023-08-24T10:43:17;3.45;;;2.90;;
12476;SDS011;6303;51.504;6.300;2023-08-24T10:45:54;3.20;;;2.90;;
12476;SDS011;6303;51.504;6.300;2023-08-24T10:48:23;3.55;;;3.17;;
12476;SDS011;6303;51.504;6.300;2023-08-24T10:53:46;3.33;;;2.80;;
12476;SDS011;6303;51.504;6.300;2023-08-24T10:56:17;4.05;;;2.67;;
12476;SDS011;6303;51.504;6.300;2023-08-24T10:58:45;3.85;;;3.00;;
12476;SDS011;6303;51.504;6.300;2023-08-24T11:01:14;2.90;;;2.70;;
12476;SDS011;6303;51.504;6.300;2023-08-24T11:03:46;3.70;;;2.80;;
12476;SDS011;6303;51.504;6.300;2023-08-24T11:06:19;3.05;;;2.80;;
12476;SDS011;6303;51.504;6.300;2023-08-24T11:08:48;3.40;;;3.10;;
12476;SDS011;6303;51.504;6.300;2023-08-24T11:11:19;3.28;;;2.97;;
12476;SDS011;6303;51.504;6.300;2023-08-24T11:16:45;4.15;;;3.00;;
12476;SDS011;6303;51.504;6.300;2023-08-24T11:19:14;3.17;;;2.88;;
12476;SDS011;6303;51.504;6.300;2023-08-24T11:21:42;3.42;;;2.95;;
12476;SDS011;6303;51.504;6.300;2023-08-24T11:24:11;3.72;;;3.42;;
12476;SDS011;6303;51.504;6.300;2023-08-24T11:26:39;4.43;;;3.63;;
12476;SDS011;6303;51.504;6.300;2023-08-24T11:29:08;4.13;;;3.47;;
12476;SDS011;6303;51.504;6.300;2023-08-24T11:31:35;5.30;;;3.72;;
12476;SDS011;6303;51.504;6.300;2023-08-24T11:34:03;4.88;;;3.80;;
12476;SDS011;6303;51.504;6.300;2023-08-24T11:36:32;4.85;;;3.50;;
12476;SDS011;6303;51.504;6.300;2023-08-24T11:39:13;4.63;;;3.63;;
12476;SDS011;6303;51.504;6.300;2023-08-24T11:41:42;3.78;;;3.40;;
12476;SDS011;6303;51.504;6.300;2023-08-24T11:44:09;3.75;;;3.40;;
12476;SDS011;6303;51.504;6.300;2023-08-24T11:46:37;3.67;;;3.30;;
12476;SDS011;6303;51.504;6.300;2023-08-24T11:49:04;3.53;;;3.03;;
12476;SDS011;6303;51.504;6.300;2023-08-24T11:51:33;5.10;;;3.08;;
12476;SDS011;6303;51.504;6.300;2023-08-24T11:54:02;4.63;;;3.38;;
12476;SDS011;6303;51.504;6.300;2023-08-24T11:56:29;3.97;;;3.15;;
12476;SDS011;6303;51.504;6.300;2023-08-24T11:58:56;3.63;;;3.33;;
12476;SDS011;6303;51.504;6.300;2023-08-24T12:01:23;3.63;;;3.33;;
12476;SDS011;6303;51.504;6.300;2023-08-24T12:03:52;3.53;;;3.17;;
12476;SDS011;6303;51.504;6.300;2023-08-24T12:06:19;4.03;;;3.05;;
12476;SDS011;6303;51.504;6.300;2023-08-24T12:08:48;3.60;;;3.30;;
12476;SDS011;6303;51.504;6.300;2023-08-24T12:11:16;3.80;;;3.40;;
12476;SDS011;6303;51.504;6.300;2023-08-24T12:13:45;3.80;;;3.20;;
12476;SDS011;6303;51.504;6.300;2023-08-24T12:16:13;5.20;;;3.22;;
12476;SDS011;6303;51.504;6.300;2023-08-24T12:18:52;3.38;;;3.08;;
12476;SDS011;6303;51.504;6.300;2023-08-24T12:21:20;3.42;;;3.13;;
12476;SDS011;6303;51.504;6.300;2023-08-24T12:23:59;4.03;;;3.00;;
12476;SDS011;6303;51.504;6.300;2023-08-24T12:26:29;3.70;;;3.25;;
12476;SDS011;6303;51.504;6.300;2023-08-24T12:28:59;6.25;;;3.38;;
12476;SDS011;6303;51.504;6.300;2023-08-24T12:31:28;3.70;;;3.10;;
12476;SDS011;6303;51.504;6.300;2023-08-24T12:33:59;5.35;;;3.10;;
12476;SDS011;6303;51.504;6.300;2023-08-24T12:36:28;4.88;;;3.70;;
12476;SDS011;6303;51.504;6.300;2023-08-24T12:38:55;4.20;;;3.38;;
12476;SDS011;6303;51.504;6.300;2023-08-24T12:41:25;3.83;;;3.20;;
12476;SDS011;6303;51.504;6.300;2023-08-24T12:43:52;3.95;;;3.40;;
12476;SDS011;6303;51.504;6.300;2023-08-24T12:46:19;4.47;;;3.50;;
12476;SDS011;6303;51.504;6.300;2023-08-24T12:48:46;6.38;;;3.88;;
12476;SDS011;6303;51.504;6.300;2023-08-24T12:51:13;4.93;;;3.55;;
12476;SDS011;6303;51.504;6.300;2023-08-24T12:53:40;5.35;;;4.05;;
12476;SDS011;6303;51.504;6.300;2023-08-24T12:56:07;6.30;;;4.07;;
12476;SDS011;6303;51.504;6.300;2023-08-24T12:58:36;6.45;;;4.05;;
12476;SDS011;6303;51.504;6.300;2023-08-24T13:01:03;10.07;;;4.20;;
12476;SDS011;6303;51.504;6.300;2023-08-24T13:03:30;9.05;;;4.32;;
12476;SDS011;6303;51.504;6.300;2023-08-24T13:05:57;10.30;;;4.65;;
12476;SDS011;6303;51.504;6.300;2023-08-24T13:08:24;11.10;;;5.05;;
12476;SDS011;6303;51.504;6.300;2023-08-24T13:10:51;123.88;;;36.08;;
12476;SDS011;6303;51.504;6.300;2023-08-24T13:13:18;67.10;;;21.70;;
12476;SDS011;6303;51.504;6.300;2023-08-24T13:15:49;32.95;;;12.48;;
12476;SDS011;6303;51.504;6.300;2023-08-24T13:18:16;22.65;;;7.95;;
12476;SDS011;6303;51.504;6.300;2023-08-24T13:20:44;17.77;;;7.15;;
12476;SDS011;6303;51.504;6.300;2023-08-24T13:23:11;14.57;;;6.35;;
12476;SDS011;6303;51.504;6.300;2023-08-24T13:25:38;10.80;;;5.13;;
12476;SDS011;6303;51.504;6.300;2023-08-24T13:28:06;9.00;;;4.57;;
12476;SDS011;6303;51.504;6.300;2023-08-24T13:30:33;11.10;;;4.97;;
12476;SDS011;6303;51.504;6.300;2023-08-24T13:33:01;7.85;;;3.90;;
12476;SDS011;6303;51.504;6.300;2023-08-24T13:35:28;8.43;;;3.90;;
12476;SDS011;6303;51.504;6.300;2023-08-24T13:37:55;7.55;;;3.80;;
12476;SDS011;6303;51.504;6.300;2023-08-24T13:40:22;8.13;;;4.15;;
12476;SDS011;6303;51.504;6.300;2023-08-24T13:42:49;6.70;;;3.78;;
12476;SDS011;6303;51.504;6.300;2023-08-24T13:45:16;6.78;;;3.50;;
12476;SDS011;6303;51.504;6.300;2023-08-24T13:47:44;7.13;;;3.53;;
12476;SDS011;6303;51.504;6.300;2023-08-24T13:50:12;7.47;;;3.40;;
12476;SDS011;6303;51.504;6.300;2023-08-24T13:52:39;6.03;;;3.70;;
12476;SDS011;6303;51.504;6.300;2023-08-24T13:55:06;7.05;;;3.60;;
12476;SDS011;6303;51.504;6.300;2023-08-24T13:57:34;6.45;;;3.70;;
12476;SDS011;6303;51.504;6.300;2023-08-24T14:00:01;3.95;;;3.50;;
12476;SDS011;6303;51.504;6.300;2023-08-24T14:02:37;5.55;;;3.30;;
12476;SDS011;6303;51.504;6.300;2023-08-24T14:05:05;5.75;;;3.38;;
12476;SDS011;6303;51.504;6.300;2023-08-24T14:07:35;5.25;;;3.35;;
12476;SDS011;6303;51.504;6.300;2023-08-24T14:10:03;4.45;;;2.85;;
12476;SDS011;6303;51.504;6.300;2023-08-24T14:12:31;4.40;;;3.00;;
12476;SDS011;6303;51.504;6.300;2023-08-24T14:14:58;4.63;;;2.97;;
12476;SDS011;6303;51.504;6.300;2023-08-24T14:17:25;4.10;;;3.10;;
12476;SDS011;6303;51.504;6.300;2023-08-24T14:19:52;5.20;;;2.67;;
12476;SDS011;6303;51.504;6.300;2023-08-24T14:22:20;3.78;;;3.10;;
12476;SDS011;6303;51.504;6.300;2023-08-24T14:24:48;4.03;;;2.90;;
12476;SDS011;6303;51.504;6.300;2023-08-24T14:27:15;5.13;;;2.58;;
12476;SDS011;6303;51.504;6.300;2023-08-24T14:29:42;4.70;;;3.15;;
12476;SDS011;6303;51.504;6.300;2023-08-24T14:32:09;3.90;;;2.80;;
12476;SDS011;6303;51.504;6.300;2023-08-24T14:34:36;4.38;;;2.78;;
12476;SDS011;6303;51.504;6.300;2023-08-24T14:37:03;3.00;;;2.67;;
12476;SDS011;6303;51.504;6.300;2023-08-24T14:39:30;3.70;;;2.70;;
12476;SDS011;6303;51.504;6.300;2023-08-24T14:41:59;3.55;;;2.80;;
12476;SDS011;6303;51.504;6.300;2023-08-24T14:44:28;3.17;;;2.88;;
12476;SDS011;6303;51.504;6.300;2023-08-24T14:46:55;4.70;;;2.90;;
12476;SDS011;6303;51.504;6.300;2023-08-24T14:49:22;3.00;;;2.80;;
12476;SDS011;6303;51.504;6.300;2023-08-24T14:51:49;2.90;;;2.67;;
12476;SDS011;6303;51.504;6.300;2023-08-24T14:54:16;3.55;;;3.10;;
12476;SDS011;6303;51.504;6.300;2023-08-24T14:56:43;3.05;;;2.67;;
12476;SDS011;6303;51.504;6.300;2023-08-24T14:59:12;2.65;;;2.40;;
12476;SDS011;6303;51.504;6.300;2023-08-24T15:01:39;2.78;;;2.45;;
12476;SDS011;6303;51.504;6.300;2023-08-24T15:04:06;3.53;;;2.70;;
12476;SDS011;6303;51.504;6.300;2023-08-24T15:06:33;2.53;;;2.33;;
12476;SDS011;6303;51.504;6.300;2023-08-24T15:09:00;3.05;;;2.70;;
12476;SDS011;6303;51.504;6.300;2023-08-24T15:11:28;2.75;;;2.47;;